createdAt,value
2018-08-20T00:00:09.057Z,41.80
2018-08-20T00:02:38.030Z,42.80
2018-08-20T00:05:06.308Z,42.90
2018-08-20T00:07:34.551Z,41.80
2018-08-20T00:10:02.796Z,41.80
2018-08-20T00:12:30.992Z,41.40
2018-08-20T00:14:59.213Z,42.30
2018-08-20T00:17:27.419Z,41.30
2018-08-20T00:19:55.687Z,41.10
2018-08-20T00:22:24.702Z,42.30
2018-08-20T00:24:52.988Z,42.20
2018-08-20T00:27:21.233Z,42.30
2018-08-20T00:29:50.247Z,42.40
2018-08-20T00:32:18.454Z,42.40
2018-08-20T00:34:46.707Z,42.70
2018-08-20T00:37:14.915Z,43.90
2018-08-20T00:39:43.169Z,43.80
2018-08-20T00:42:11.382Z,42.10
2018-08-20T00:44:39.615Z,41.80
2018-08-20T00:47:07.863Z,41.60
2018-08-20T00:49:36.831Z,42.50
2018-08-20T00:52:05.067Z,42.40
2018-08-20T00:54:33.275Z,41.90
2018-08-20T00:57:01.555Z,41.80
2018-08-20T00:59:29.789Z,42.20
2018-08-20T01:01:58.050Z,42.60
2018-08-20T01:04:26.283Z,42.80
2018-08-20T01:06:54.463Z,42.40
2018-08-20T01:09:22.693Z,45.50
2018-08-20T01:11:50.946Z,43.80
2018-08-20T01:14:19.972Z,43.30
2018-08-20T01:16:48.166Z,43.30
2018-08-20T01:19:16.436Z,44.10
2018-08-20T01:21:44.631Z,43.30
2018-08-20T01:24:12.860Z,44.00
2018-08-20T01:26:41.070Z,43.30
2018-08-20T01:29:09.282Z,43.20
2018-08-20T01:31:38.264Z,43.10
2018-08-20T01:34:06.535Z,43.10
2018-08-20T01:36:34.748Z,44.10
2018-08-20T01:39:02.961Z,43.60
2018-08-20T01:41:31.233Z,43.30
2018-08-20T01:43:59.436Z,43.20
2018-08-20T01:46:27.706Z,44.80
2018-08-20T01:48:55.946Z,44.20
2018-08-20T01:51:24.166Z,44.40
2018-08-20T01:53:53.136Z,43.00
2018-08-20T01:56:21.420Z,43.00
2018-08-20T01:58:49.665Z,43.00
2018-08-20T02:01:17.909Z,43.00
2018-08-20T02:03:46.899Z,43.10
2018-08-20T02:06:15.143Z,42.80
2018-08-20T02:08:43.409Z,42.80
2018-08-20T02:11:11.654Z,42.90
2018-08-20T02:13:39.926Z,43.20
2018-08-20T02:16:08.896Z,43.80
2018-08-20T02:18:37.109Z,43.80
2018-08-20T02:21:05.334Z,43.20
2018-08-20T02:23:33.538Z,45.20
2018-08-20T02:26:02.538Z,44.20
2018-08-20T02:28:31.547Z,45.00
2018-08-20T02:30:59.802Z,45.00
2018-08-20T02:33:28.811Z,44.70
2018-08-20T02:35:57.039Z,44.70
2018-08-20T02:38:25.291Z,44.50
2018-08-20T02:40:53.535Z,44.80
2018-08-20T02:43:22.515Z,43.90
2018-08-20T02:45:51.530Z,43.90
2018-08-20T02:48:19.755Z,43.90
2018-08-20T02:50:48.003Z,45.60
2018-08-20T02:53:16.261Z,46.20
2018-08-20T02:55:44.507Z,46.20
2018-08-20T02:58:12.731Z,47.40
2018-08-20T03:00:40.979Z,45.20
2018-08-20T03:03:09.961Z,44.80
2018-08-20T03:05:38.983Z,44.10
2018-08-20T03:08:07.213Z,44.20
2018-08-20T03:10:35.540Z,44.80
2018-08-20T03:13:03.784Z,44.90
2018-08-20T03:15:32.000Z,44.60
2018-08-20T03:18:00.209Z,44.20
2018-08-20T03:20:28.443Z,45.20
2018-08-20T03:22:56.685Z,50.70
2018-08-20T03:25:25.672Z,46.40
2018-08-20T03:27:55.391Z,45.00
2018-08-20T03:30:24.436Z,44.20
2018-08-20T03:32:52.649Z,44.20
2018-08-20T03:35:20.885Z,44.30
2018-08-20T03:37:49.095Z,45.20
2018-08-20T03:40:17.295Z,44.20
2018-08-20T03:42:46.291Z,45.00
2018-08-20T03:45:15.271Z,44.30
2018-08-20T03:47:43.535Z,44.20
2018-08-20T03:50:11.729Z,44.70
2018-08-20T03:52:40.787Z,45.10
2018-08-20T03:55:08.987Z,45.30
2018-08-20T03:57:37.202Z,44.90
2018-08-20T04:00:05.425Z,45.90
2018-08-20T04:02:33.679Z,46.30
2018-08-20T04:05:01.982Z,46.40
2018-08-20T04:07:30.139Z,46.40
2018-08-20T04:09:58.402Z,45.70
2018-08-20T04:12:26.653Z,46.50
2018-08-20T04:14:55.627Z,46.50
2018-08-20T04:17:24.592Z,47.30
2018-08-20T04:19:52.856Z,47.10
2018-08-20T04:22:21.060Z,45.80
2018-08-20T04:24:49.321Z,45.60
2018-08-20T04:27:17.524Z,45.40
2018-08-20T04:29:46.554Z,45.40
2018-08-20T04:32:15.224Z,45.00
2018-08-20T04:34:43.449Z,46.50
2018-08-20T04:37:11.670Z,47.90
2018-08-20T04:39:40.652Z,46.50
2018-08-20T04:42:08.910Z,46.50
2018-08-20T04:44:37.082Z,45.80
2018-08-20T04:47:05.322Z,46.20
2018-08-20T04:49:33.533Z,45.50
2018-08-20T04:52:01.786Z,45.80
2018-08-20T04:54:29.996Z,45.20
2018-08-20T04:56:58.208Z,45.10
2018-08-20T04:59:26.461Z,45.40
2018-08-20T05:01:54.664Z,45.90
2018-08-20T05:04:22.943Z,45.30
2018-08-20T05:06:51.913Z,46.30
2018-08-20T05:09:20.950Z,46.30
2018-08-20T05:11:49.152Z,46.20
2018-08-20T05:14:17.392Z,46.10
2018-08-20T05:16:45.607Z,46.00
2018-08-20T05:19:13.856Z,46.10
2018-08-20T05:21:42.126Z,45.90
2018-08-20T05:24:10.374Z,45.80
2018-08-20T05:26:39.351Z,46.10
2018-08-20T05:29:07.569Z,46.10
2018-08-20T05:31:35.791Z,46.10
2018-08-20T05:34:04.049Z,45.90
2018-08-20T05:36:32.293Z,45.90
2018-08-20T05:39:00.543Z,45.80
2018-08-20T05:41:29.515Z,46.00
2018-08-20T05:43:57.783Z,46.00
2018-08-20T05:46:25.993Z,45.90
2018-08-20T05:48:54.985Z,45.80
2018-08-20T05:51:24.010Z,45.90
2018-08-20T05:53:52.245Z,45.90
2018-08-20T05:56:20.492Z,45.90
2018-08-20T05:58:48.695Z,45.90
2018-08-20T06:01:17.723Z,46.20
2018-08-20T06:03:45.949Z,46.00
2018-08-20T06:06:14.171Z,45.70
2018-08-20T06:08:42.380Z,45.70
2018-08-20T06:11:10.601Z,46.00
2018-08-20T06:13:39.631Z,46.30
2018-08-20T06:16:07.855Z,46.30
2018-08-20T06:18:36.106Z,45.80
2018-08-20T06:21:04.339Z,47.30
2018-08-20T06:23:33.336Z,45.60
2018-08-20T06:26:02.349Z,47.90
2018-08-20T06:28:30.673Z,47.80
2018-08-20T06:30:58.872Z,46.90
2018-08-20T06:33:27.123Z,45.70
2018-08-20T06:35:55.345Z,48.10
2018-08-20T06:38:23.695Z,49.40
2018-08-20T06:40:52.629Z,47.30
2018-08-20T06:43:20.881Z,47.30
2018-08-20T06:45:49.901Z,47.40
2018-08-20T06:48:18.107Z,47.30
2018-08-20T06:50:46.371Z,47.20
2018-08-20T06:53:14.571Z,48.90
2018-08-20T06:55:42.798Z,47.60
2018-08-20T06:58:11.053Z,47.80
2018-08-20T07:00:40.104Z,48.80
2018-08-20T07:03:08.327Z,48.80
2018-08-20T07:05:37.288Z,47.60
2018-08-20T07:08:05.557Z,47.70
2018-08-20T07:10:33.764Z,47.40
2018-08-20T07:13:02.810Z,47.80
2018-08-20T07:15:31.021Z,47.80
2018-08-20T07:17:59.226Z,47.10
2018-08-20T07:20:27.497Z,49.50
2018-08-20T07:22:56.482Z,47.00
2018-08-20T07:25:24.744Z,47.00
2018-08-20T07:27:52.934Z,47.60
2018-08-20T07:30:21.927Z,47.80
2018-08-20T07:32:50.923Z,47.20
2018-08-20T07:35:19.138Z,47.10
2018-08-20T07:37:47.382Z,47.90
2018-08-20T07:40:16.379Z,47.40
2018-08-20T07:42:44.591Z,47.40
2018-08-20T07:45:12.801Z,47.10
2018-08-20T07:47:41.076Z,47.20
2018-08-20T07:50:09.267Z,47.00
2018-08-20T07:52:38.307Z,47.30
2018-08-20T07:55:06.511Z,47.20
2018-08-20T07:57:34.736Z,47.40
2018-08-20T08:00:02.994Z,47.00
2018-08-20T08:02:32.026Z,47.50
2018-08-20T08:05:00.266Z,46.90
2018-08-20T08:07:29.251Z,47.10
2018-08-20T08:09:57.509Z,47.10
2018-08-20T08:12:25.759Z,47.90
2018-08-20T08:14:53.969Z,47.20
2018-08-20T08:17:22.206Z,47.90
2018-08-20T08:19:50.557Z,47.90
2018-08-20T08:22:18.720Z,47.10
2018-08-20T08:24:46.986Z,47.90
2018-08-20T08:27:15.195Z,47.90
2018-08-20T08:29:43.469Z,47.50
2018-08-20T08:32:12.445Z,47.30
2018-08-20T08:34:41.416Z,47.10
2018-08-20T08:37:09.644Z,47.10
2018-08-20T08:39:37.865Z,47.10
2018-08-20T08:42:06.847Z,47.20
2018-08-20T08:44:35.054Z,47.40
2018-08-20T08:47:04.086Z,47.80
2018-08-20T08:49:32.322Z,47.40
2018-08-20T08:52:00.575Z,47.20
2018-08-20T08:54:28.784Z,47.20
2018-08-20T08:56:57.810Z,47.10
2018-08-20T08:59:26.070Z,47.20
2018-08-20T09:01:54.289Z,47.00
2018-08-20T09:04:22.514Z,47.10
2018-08-20T09:06:51.526Z,46.90
2018-08-20T09:09:19.781Z,46.90
2018-08-20T09:11:49.083Z,46.90
2018-08-20T09:14:18.085Z,46.70
2018-08-20T09:16:46.291Z,46.70
2018-08-20T09:19:14.559Z,46.80
2018-08-20T09:21:42.775Z,46.60
2018-08-20T09:24:11.006Z,46.60
2018-08-20T09:26:39.229Z,46.70
2018-08-20T09:29:07.435Z,46.70
2018-08-20T09:31:35.663Z,46.70
2018-08-20T09:34:03.874Z,46.70
2018-08-20T09:36:32.131Z,46.70
2018-08-20T09:39:01.221Z,46.50
2018-08-20T09:41:29.466Z,46.30
2018-08-20T09:43:57.678Z,46.40
2018-08-20T09:46:25.909Z,46.60
2018-08-20T09:48:54.174Z,46.40
2018-08-20T09:51:23.141Z,46.40
2018-08-20T09:53:51.368Z,46.40
2018-08-20T09:56:19.620Z,46.20
2018-08-20T09:58:47.846Z,46.30
2018-08-20T10:01:16.108Z,46.20
2018-08-20T10:03:44.310Z,46.20
2018-08-20T10:06:12.549Z,46.30
2018-08-20T10:08:40.740Z,46.00
2018-08-20T10:11:09.022Z,45.90
2018-08-20T10:13:37.260Z,45.80
2018-08-20T10:16:05.523Z,45.70
2018-08-20T10:18:34.607Z,45.70
2018-08-20T10:21:02.811Z,45.70
2018-08-20T10:23:31.014Z,45.30
2018-08-20T10:25:59.216Z,45.80
2018-08-20T10:28:27.479Z,45.80
2018-08-20T10:30:55.716Z,45.80
2018-08-20T10:33:23.984Z,45.50
2018-08-20T10:35:52.996Z,45.30
2018-08-20T10:38:21.215Z,45.30
2018-08-20T10:40:49.418Z,45.80
2018-08-20T10:43:18.446Z,45.90
2018-08-20T10:45:46.652Z,45.90
2018-08-20T10:48:14.871Z,45.30
2018-08-20T10:50:43.104Z,46.00
2018-08-20T10:53:11.360Z,45.60
2018-08-20T10:55:39.584Z,46.00
2018-08-20T10:58:08.616Z,45.70
2018-08-20T11:00:36.880Z,45.70
2018-08-20T11:03:05.089Z,45.80
2018-08-20T11:05:33.314Z,45.30
2018-08-20T11:08:02.288Z,45.00
2018-08-20T11:10:30.554Z,45.10
2018-08-20T11:12:58.824Z,44.20
2018-08-20T11:15:27.061Z,45.60
2018-08-20T11:17:55.316Z,44.90
2018-08-20T11:20:24.330Z,41.20
2018-08-20T11:22:52.586Z,41.30
2018-08-20T11:25:21.554Z,43.10
2018-08-20T11:27:49.777Z,43.10
2018-08-20T11:30:18.062Z,43.60
2018-08-20T11:32:47.078Z,41.90
2018-08-20T11:35:15.320Z,41.90
2018-08-20T11:37:43.536Z,43.00
2018-08-20T11:40:11.805Z,42.70
2018-08-20T11:42:40.057Z,42.50
2018-08-20T11:45:09.066Z,42.80
2018-08-20T11:47:37.270Z,43.40
2018-08-20T11:50:05.541Z,42.80
2018-08-20T11:52:33.769Z,42.30
2018-08-20T11:55:02.738Z,43.60
2018-08-20T11:57:31.018Z,43.60
2018-08-20T11:59:59.261Z,41.10
2018-08-20T12:02:27.473Z,40.70
2018-08-20T12:04:56.499Z,41.40
2018-08-20T12:07:24.832Z,41.40
2018-08-20T12:09:53.773Z,39.00
2018-08-20T12:12:21.992Z,38.80
2018-08-20T12:14:50.206Z,41.80
2018-08-20T12:17:19.303Z,39.00
2018-08-20T12:19:47.507Z,39.00
2018-08-20T12:22:16.614Z,40.70
2018-08-20T12:24:44.799Z,41.30
2018-08-20T12:27:13.064Z,41.00
2018-08-20T12:29:41.315Z,39.20
2018-08-20T12:32:09.541Z,39.90
2018-08-20T12:34:37.815Z,39.30
2018-08-20T12:37:06.064Z,41.00
2018-08-20T12:39:34.283Z,41.30
2018-08-20T12:42:03.310Z,40.40
2018-08-20T12:44:31.592Z,39.70
2018-08-20T12:46:59.857Z,38.30
2018-08-20T12:49:28.832Z,38.70
2018-08-20T12:51:57.855Z,40.60
2018-08-20T12:54:26.095Z,40.20
2018-08-20T12:56:54.336Z,39.00
2018-08-20T12:59:22.545Z,40.20
2018-08-20T13:01:50.768Z,40.80
2018-08-20T13:04:18.983Z,40.10
2018-08-20T13:06:47.213Z,39.80
2018-08-20T13:09:15.482Z,40.50
2018-08-20T13:11:44.434Z,40.40
2018-08-20T13:14:12.706Z,40.40
2018-08-20T13:16:40.916Z,37.10
2018-08-20T13:19:09.908Z,39.80
2018-08-20T13:21:38.938Z,39.00
2018-08-20T13:24:07.166Z,39.00
2018-08-20T13:26:35.385Z,39.10
2018-08-20T13:29:03.618Z,36.20
2018-08-20T13:31:31.830Z,37.80
2018-08-20T13:34:00.036Z,37.60
2018-08-20T13:36:28.288Z,38.20
2018-08-20T13:38:57.301Z,37.30
2018-08-20T13:41:25.576Z,37.40
2018-08-20T13:43:53.836Z,38.50
2018-08-20T13:46:22.818Z,37.00
2018-08-20T13:48:51.092Z,37.00
2018-08-20T13:51:20.086Z,37.50
2018-08-20T13:53:48.343Z,37.50
2018-08-20T13:56:16.604Z,37.40
2018-08-20T13:58:44.858Z,36.70
2018-08-20T14:01:13.122Z,37.60
2018-08-20T14:03:41.398Z,36.90
2018-08-20T14:06:09.644Z,37.30
2018-08-20T14:08:38.633Z,38.20
2018-08-20T14:11:07.615Z,38.20
2018-08-20T14:13:36.675Z,37.50
2018-08-20T14:16:05.677Z,38.00
2018-08-20T14:18:33.915Z,37.40
2018-08-20T14:21:02.143Z,37.50
2018-08-20T14:23:30.423Z,38.40
2018-08-20T14:25:58.669Z,37.70
2018-08-20T14:28:26.881Z,38.10
2018-08-20T14:30:55.109Z,38.70
2018-08-20T14:33:23.316Z,38.10
2018-08-20T14:35:51.552Z,37.80
2018-08-20T14:38:19.805Z,37.70
2018-08-20T14:40:48.801Z,37.30
2018-08-20T14:43:17.844Z,37.60
2018-08-20T14:45:46.083Z,37.60
2018-08-20T14:48:14.312Z,37.40
2018-08-20T14:50:42.564Z,38.70
2018-08-20T14:53:10.775Z,38.10
2018-08-20T14:55:39.045Z,39.00
2018-08-20T14:58:07.261Z,39.10
2018-08-20T15:00:35.553Z,38.70
2018-08-20T15:03:03.762Z,37.80
2018-08-20T15:05:32.014Z,35.90
2018-08-20T15:08:00.446Z,35.90
2018-08-20T15:10:28.707Z,34.90
2018-08-20T15:12:56.927Z,35.90
2018-08-20T15:15:25.188Z,35.40
2018-08-20T15:17:53.378Z,37.50
2018-08-20T15:20:21.651Z,35.90
2018-08-20T15:22:50.667Z,36.70
2018-08-20T15:25:18.922Z,36.70
2018-08-20T15:27:47.135Z,34.20
2018-08-20T15:30:15.407Z,37.70
2018-08-20T15:32:43.691Z,36.70
2018-08-20T15:35:11.936Z,36.70
2018-08-20T15:37:40.139Z,35.60
2018-08-20T15:40:08.413Z,37.50
2018-08-20T15:42:36.658Z,37.90
2018-08-20T15:45:05.676Z,37.80
2018-08-20T15:47:33.909Z,37.80
2018-08-20T15:50:02.931Z,37.10
2018-08-20T15:52:31.222Z,37.00
2018-08-20T15:54:59.420Z,37.60
2018-08-20T15:57:27.646Z,34.80
2018-08-20T15:59:56.652Z,37.40
2018-08-20T16:02:24.922Z,37.40
2018-08-20T16:04:53.917Z,37.50
2018-08-20T16:07:22.932Z,38.00
2018-08-20T16:09:51.139Z,38.00
2018-08-20T16:12:19.358Z,37.40
2018-08-20T16:14:48.399Z,36.30
2018-08-20T16:17:16.647Z,36.30
2018-08-20T16:19:44.914Z,36.30
2018-08-20T16:22:13.894Z,36.90
2018-08-20T16:24:42.164Z,37.00
2018-08-20T16:27:10.428Z,36.90
2018-08-20T16:29:38.662Z,37.10
2018-08-20T16:32:06.892Z,37.30
2018-08-20T16:34:35.142Z,37.20
2018-08-20T16:37:03.373Z,37.70
2018-08-20T16:39:31.616Z,37.40
2018-08-20T16:41:59.825Z,37.80
2018-08-20T16:44:28.105Z,37.70
2018-08-20T16:46:56.375Z,37.60
2018-08-20T16:49:24.581Z,37.30
2018-08-20T16:51:52.801Z,37.10
2018-08-20T16:54:21.395Z,37.60
2018-08-20T16:56:50.363Z,37.70
2018-08-20T16:59:18.593Z,37.70
2018-08-20T17:01:46.857Z,37.70
2018-08-20T17:04:15.894Z,37.50
2018-08-20T17:06:44.141Z,37.50
2018-08-20T17:09:12.360Z,37.60
2018-08-20T17:11:40.616Z,37.70
2018-08-20T17:14:08.887Z,37.80
2018-08-20T17:16:37.151Z,37.90
2018-08-20T17:19:05.406Z,37.90
2018-08-20T17:21:34.389Z,38.10
2018-08-20T17:24:03.371Z,38.10
2018-08-20T17:26:31.601Z,38.10
2018-08-20T17:28:59.852Z,38.20
2018-08-20T17:31:28.833Z,38.30
2018-08-20T17:33:57.862Z,38.30
2018-08-20T17:36:26.117Z,38.30
2018-08-20T17:38:54.379Z,38.40
2018-08-20T17:41:22.641Z,38.40
2018-08-20T17:43:50.843Z,38.40
2018-08-20T17:46:19.855Z,38.50
2018-08-20T17:48:49.035Z,38.50
2018-08-20T17:51:18.075Z,38.80
2018-08-20T17:53:46.339Z,38.80
2018-08-20T17:56:14.623Z,39.20
2018-08-20T17:58:42.839Z,38.60
2018-08-20T18:01:11.155Z,39.50
2018-08-20T18:03:39.316Z,39.60
2018-08-20T18:06:07.551Z,38.70
2018-08-20T18:08:35.819Z,38.80
2018-08-20T18:11:04.831Z,39.30
2018-08-20T18:13:33.086Z,39.30
2018-08-20T18:16:01.304Z,39.30
2018-08-20T18:18:30.344Z,40.20
2018-08-20T18:20:58.573Z,40.10
2018-08-20T18:23:27.661Z,39.90
2018-08-20T18:25:55.859Z,39.80
2018-08-20T18:28:24.878Z,39.40
2018-08-20T18:30:53.116Z,39.40
2018-08-20T18:33:22.159Z,39.70
2018-08-20T18:35:50.424Z,39.70
2018-08-20T18:38:18.677Z,39.90
2018-08-20T18:40:47.675Z,39.90
2018-08-20T18:43:15.938Z,39.90
2018-08-20T18:45:44.962Z,40.00
2018-08-20T18:48:13.202Z,39.90
2018-08-20T18:50:41.412Z,39.80
2018-08-20T18:53:09.684Z,40.70
2018-08-20T18:55:37.884Z,40.60
2018-08-20T18:58:06.150Z,40.30
2018-08-20T19:00:34.361Z,41.70
2018-08-20T19:03:02.657Z,40.30
2018-08-20T19:05:30.892Z,40.20
2018-08-20T19:07:59.139Z,40.60
2018-08-20T19:10:28.150Z,41.70
2018-08-20T19:12:56.414Z,41.60
2018-08-20T19:15:24.638Z,40.70
2018-08-20T19:17:52.901Z,40.70
2018-08-20T19:20:21.159Z,40.40
2018-08-20T19:22:49.384Z,40.30
2018-08-20T19:25:17.656Z,40.20
2018-08-20T19:27:45.891Z,40.30
2018-08-20T19:30:14.178Z,41.90
2018-08-20T19:32:42.413Z,40.30
2018-08-20T19:35:11.412Z,40.30
2018-08-20T19:37:39.678Z,40.30
2018-08-20T19:40:08.669Z,40.10
2018-08-20T19:42:37.650Z,40.20
2018-08-20T19:45:05.872Z,40.20
2018-08-20T19:47:34.109Z,40.60
2018-08-20T19:50:02.333Z,40.50
2018-08-20T19:52:30.554Z,40.90
2018-08-20T19:54:58.817Z,40.20
2018-08-20T19:57:27.082Z,40.20
2018-08-20T19:59:55.325Z,40.20
2018-08-20T20:02:23.608Z,40.20
2018-08-20T20:04:51.876Z,40.20
2018-08-20T20:07:20.095Z,40.30
2018-08-20T20:09:48.367Z,40.20
2018-08-20T20:12:16.642Z,40.20
2018-08-20T20:14:45.581Z,40.30
2018-08-20T20:17:14.573Z,40.20
2018-08-20T20:19:42.845Z,40.20
2018-08-20T20:22:11.082Z,40.50
2018-08-20T20:24:39.348Z,40.70
2018-08-20T20:27:07.561Z,40.40
2018-08-20T20:29:35.794Z,40.40
2018-08-20T20:32:04.056Z,40.40
2018-08-20T20:34:32.436Z,40.30
2018-08-20T20:37:00.649Z,40.40
2018-08-20T20:39:28.885Z,40.50
2018-08-20T20:41:57.097Z,40.60
2018-08-20T20:44:25.335Z,40.60
2018-08-20T20:46:53.596Z,40.40
2018-08-20T20:49:22.578Z,41.10
2018-08-20T20:51:50.844Z,40.50
2018-08-20T20:54:19.101Z,41.20
2018-08-20T20:56:47.295Z,40.60
2018-08-20T20:59:15.567Z,40.80
2018-08-20T21:01:43.840Z,40.70
2018-08-20T21:04:12.043Z,40.90
2018-08-20T21:06:41.038Z,41.00
2018-08-20T21:09:10.014Z,41.00
2018-08-20T21:11:38.281Z,40.90
2018-08-20T21:14:06.515Z,40.90
2018-08-20T21:16:35.472Z,41.00
2018-08-20T21:19:04.497Z,41.10
2018-08-20T21:21:32.717Z,41.10
2018-08-20T21:24:00.939Z,41.10
2018-08-20T21:26:29.172Z,41.10
2018-08-20T21:28:57.491Z,41.10
2018-08-20T21:31:26.499Z,41.80
2018-08-20T21:33:54.708Z,41.70
2018-08-20T21:36:22.969Z,41.60
2018-08-20T21:38:51.196Z,41.40
2018-08-20T21:41:20.269Z,41.30
2018-08-20T21:43:48.524Z,41.40
2018-08-20T21:46:16.786Z,41.40
2018-08-20T21:48:45.050Z,41.30
2018-08-20T21:51:14.058Z,41.80
2018-08-20T21:53:42.268Z,41.80
2018-08-20T21:56:10.540Z,42.00
2018-08-20T21:58:38.835Z,41.80
2018-08-20T22:01:07.100Z,41.60
2018-08-20T22:03:35.255Z,42.50
2018-08-20T22:06:03.468Z,43.90
2018-08-20T22:08:32.491Z,41.30
2018-08-20T22:11:01.479Z,41.80
2018-08-20T22:13:30.458Z,41.80
2018-08-20T22:15:59.455Z,41.70
2018-08-20T22:18:28.433Z,41.70
2018-08-20T22:20:56.689Z,41.70
2018-08-20T22:23:38.812Z,41.80
2018-08-20T22:25:53.197Z,41.80
2018-08-20T22:28:22.165Z,41.80
2018-08-20T22:30:50.390Z,41.80
2018-08-20T22:33:18.653Z,41.80
2018-08-20T22:35:46.896Z,41.90
2018-08-20T22:38:15.137Z,41.80
2018-08-20T22:40:43.370Z,42.30
2018-08-20T22:43:11.590Z,41.80
2018-08-20T22:45:39.852Z,41.80
2018-08-20T22:48:08.087Z,41.80
2018-08-20T22:50:37.064Z,42.00
2018-08-20T22:53:05.329Z,42.00
2018-08-20T22:55:33.544Z,42.00
2018-08-20T22:58:01.814Z,41.90
2018-08-20T23:00:30.829Z,42.00
2018-08-20T23:02:59.052Z,42.00
2018-08-20T23:05:27.304Z,42.20
2018-08-20T23:07:55.546Z,42.10
2018-08-20T23:10:23.766Z,42.10
2018-08-20T23:12:51.988Z,42.30
2018-08-20T23:15:20.206Z,42.10
2018-08-20T23:17:48.494Z,42.10
2018-08-20T23:20:16.701Z,42.20
2018-08-20T23:22:44.933Z,42.50
2018-08-20T23:25:13.132Z,43.30
2018-08-20T23:27:41.352Z,42.40
2018-08-20T23:30:09.606Z,42.80
2018-08-20T23:32:37.858Z,43.20
2018-08-20T23:35:06.121Z,43.30
2018-08-20T23:37:34.328Z,42.50
2018-08-20T23:40:02.549Z,42.40
2018-08-20T23:42:30.806Z,43.40
2018-08-20T23:44:59.836Z,43.00
2018-08-20T23:47:28.366Z,43.00
2018-08-20T23:49:56.594Z,42.40
2018-08-20T23:52:24.843Z,42.70
2018-08-20T23:54:53.861Z,42.70
2018-08-20T23:57:22.123Z,42.70
2018-08-20T23:59:50.323Z,42.70
